Time;durP1;ratioP1;P1;durP2;ratioP2;P2;SDS_P1;SDS_P2;PMS_P1;PMS_P2;Temp;Humidity;BMP_temperature;BMP_pressure;BME280_temperature;BME280_humidity;BME280_pressure;Samples;Min_cycle;Max_cycle;Signal;HPM_P1;HPM_P2
2022/02/26 00:00:36;;;;;;;14.93;8.73;;;4.30;1.00;;;;;;5092192;28;20235;-83
2022/02/26 00:03:03;;;;;;;18.97;8.77;;;4.30;1.00;;;;;;5092207;28;20229;-82
2022/02/26 00:05:30;;;;;;;13.30;8.50;;;4.40;1.00;;;;;;5092315;28;20214;-84
2022/02/26 00:07:57;;;;;;;14.20;9.00;;;4.30;1.00;;;;;;5092246;28;20262;-81
2022/02/26 00:10:25;;;;;;;14.50;9.03;;;4.30;1.00;;;;;;5091969;28;20258;-74
2022/02/26 00:12:54;;;;;;;14.50;9.50;;;4.40;1.00;;;;;;5091806;28;20205;-70
2022/02/26 00:15:21;;;;;;;19.63;10.03;;;4.30;1.00;;;;;;5092359;28;20201;-79
2022/02/26 00:17:50;;;;;;;12.80;9.03;;;4.40;1.00;;;;;;5091786;28;20572;-76
2022/02/26 00:20:17;;;;;;;14.97;9.40;;;4.40;1.00;;;;;;5091056;28;20673;-73
2022/02/26 00:22:44;;;;;;;14.20;9.83;;;4.30;1.00;;;;;;5091941;28;20286;-77
2022/02/26 00:25:12;;;;;;;13.40;10.33;;;4.20;1.00;;;;;;5091432;28;20636;-76
2022/02/26 00:27:39;;;;;;;12.13;8.43;;;4.10;1.00;;;;;;5091559;28;20212;-74
2022/02/26 00:30:07;;;;;;;12.90;9.43;;;4.20;1.00;;;;;;5090929;28;20197;-74
2022/02/26 00:32:34;;;;;;;11.90;8.93;;;4.10;1.00;;;;;;5091295;28;20205;-76
2022/02/26 00:35:02;;;;;;;11.03;9.43;;;4.10;1.00;;;;;;5091004;28;20798;-72
2022/02/26 00:37:29;;;;;;;9.57;7.57;;;4.10;1.00;;;;;;5091648;28;20198;-75
2022/02/26 00:39:56;;;;;;;13.90;8.33;;;4.10;1.00;;;;;;5091182;28;20201;-76
2022/02/26 00:42:23;;;;;;;10.90;8.33;;;4.10;1.00;;;;;;5091051;28;20258;-73
2022/02/26 00:44:50;;;;;;;11.63;7.40;;;4.10;1.00;;;;;;5091372;28;20214;-75
2022/02/26 00:47:17;;;;;;;10.33;6.70;;;4.10;1.00;;;;;;5091243;28;20208;-75
2022/02/26 00:49:50;;;;;;;10.60;7.27;;;4.10;1.00;;;;;;5091103;28;20210;-75
2022/02/26 00:52:22;;;;;;;13.27;6.57;;;4.00;1.00;;;;;;5091411;28;20212;-74
2022/02/26 00:54:50;;;;;;;10.40;7.90;;;4.00;1.00;;;;;;5091147;28;20271;-75
2022/02/26 00:57:18;;;;;;;10.43;7.83;;;3.90;1.00;;;;;;5091067;28;20626;-73
2022/02/26 00:59:45;;;;;;;10.43;7.63;;;3.80;1.00;;;;;;5090882;28;20251;-75
2022/02/26 01:02:12;;;;;;;8.47;7.50;;;3.80;1.00;;;;;;5090067;28;20275;-75
2022/02/26 01:04:40;;;;;;;12.50;8.63;;;3.80;1.00;;;;;;5091014;28;20298;-73
2022/02/26 01:07:08;;;;;;;10.47;7.10;;;3.80;1.00;;;;;;5090480;28;20197;-73
2022/02/26 01:09:37;;;;;;;8.83;6.27;;;3.80;1.00;;;;;;5090746;28;20730;-74
2022/02/26 01:12:05;;;;;;;12.17;7.60;;;3.80;1.00;;;;;;5089966;28;20251;-76
2022/02/26 01:14:33;;;;;;;15.27;8.33;;;3.80;1.00;;;;;;5090344;28;20213;-74
2022/02/26 01:17:01;;;;;;;9.70;6.83;;;3.80;1.00;;;;;;5090060;28;20266;-74
2022/02/26 01:19:28;;;;;;;12.30;7.97;;;3.70;1.00;;;;;;5090834;28;20201;-76
2022/02/26 01:21:55;;;;;;;14.63;7.53;;;3.50;1.00;;;;;;5090244;28;20201;-73
2022/02/26 01:24:22;;;;;;;10.50;7.77;;;3.60;1.00;;;;;;5090579;28;20229;-69
2022/02/26 01:26:51;;;;;;;12.30;8.23;;;3.70;1.00;;;;;;5090822;28;20200;-76
2022/02/26 01:29:17;;;;;;;14.40;7.80;;;3.70;1.00;;;;;;5090748;28;20205;-75
2022/02/26 01:31:45;;;;;;;13.27;7.40;;;3.60;1.00;;;;;;5090634;28;20198;-77
2022/02/26 01:34:12;;;;;;;9.87;7.93;;;3.60;1.00;;;;;;5090608;28;20639;-79
2022/02/26 01:36:40;;;;;;;10.67;7.97;;;3.70;1.00;;;;;;5090556;28;20545;-80
2022/02/26 01:39:07;;;;;;;11.93;8.00;;;3.70;1.00;;;;;;5089842;28;20578;-80
2022/02/26 01:41:35;;;;;;;15.50;8.47;;;3.60;1.00;;;;;;5090330;28;20660;-81
2022/02/26 01:44:05;;;;;;;12.00;8.00;;;3.50;1.00;;;;;;5089856;28;20652;-78
2022/02/26 01:46:32;;;;;;;21.50;9.77;;;3.60;1.00;;;;;;5090016;28;20202;-82
2022/02/26 01:48:59;;;;;;;11.73;7.77;;;3.50;1.00;;;;;;5089859;28;20209;-80
2022/02/26 01:51:27;;;;;;;20.33;8.27;;;3.50;1.00;;;;;;5090297;28;20657;-80
2022/02/26 01:53:54;;;;;;;13.37;9.23;;;3.40;1.00;;;;;;5089427;28;20201;-78
2022/02/26 01:56:21;;;;;;;14.50;8.97;;;3.30;1.00;;;;;;5090448;28;20640;-79
2022/02/26 01:58:48;;;;;;;10.47;7.07;;;3.30;1.00;;;;;;5090695;28;20241;-79
2022/02/26 02:01:16;;;;;;;15.83;8.50;;;3.30;1.00;;;;;;5089353;28;20206;-78
2022/02/26 02:03:43;;;;;;;11.70;7.77;;;3.30;1.00;;;;;;5089778;28;20286;-79
2022/02/26 02:06:12;;;;;;;11.37;7.50;;;3.20;1.00;;;;;;5089760;28;20201;-79
2022/02/26 02:08:39;;;;;;;12.90;8.13;;;3.10;1.00;;;;;;5089669;28;20201;-75
2022/02/26 02:11:06;;;;;;;12.53;8.50;;;3.10;1.00;;;;;;5089519;28;20700;-74
2022/02/26 02:13:34;;;;;;;12.70;7.77;;;3.20;1.00;;;;;;5090074;28;20568;-74
2022/02/26 02:16:03;;;;;;;13.83;8.70;;;3.20;1.00;;;;;;5089146;28;20558;-76
2022/02/26 02:18:32;;;;;;;11.03;8.30;;;3.00;1.00;;;;;;5089858;28;20251;-75
2022/02/26 02:20:59;;;;;;;10.40;8.37;;;3.00;1.00;;;;;;5089475;28;20250;-74
2022/02/26 02:23:27;;;;;;;18.43;9.47;;;3.00;1.00;;;;;;5092386;28;20286;-79
2022/02/26 02:25:55;;;;;;;15.27;7.50;;;3.00;1.00;;;;;;5093878;28;20201;-78
2022/02/26 02:28:23;;;;;;;11.93;8.70;;;3.00;1.00;;;;;;5078489;28;20734;-74
2022/02/26 02:30:51;;;;;;;11.23;8.00;;;2.90;1.00;;;;;;5073887;28;20704;-79
2022/02/26 02:33:18;;;;;;;14.90;7.97;;;2.60;1.00;;;;;;5074114;28;20256;-80
2022/02/26 02:35:46;;;;;;;14.90;8.40;;;2.50;1.00;;;;;;5073531;28;20221;-74
2022/02/26 02:38:14;;;;;;;14.63;8.80;;;2.60;1.00;;;;;;5073385;28;20693;-76
2022/02/26 02:40:44;;;;;;;18.30;9.67;;;2.70;1.00;;;;;;5073550;28;20206;-77
2022/02/26 02:43:11;;;;;;;13.07;8.87;;;2.70;1.00;;;;;;5072513;28;20234;-78
2022/02/26 02:45:39;;;;;;;13.60;9.17;;;2.70;1.00;;;;;;5073307;28;20202;-77
2022/02/26 02:48:06;;;;;;;12.80;9.23;;;2.70;1.00;;;;;;5072890;28;20202;-75
2022/02/26 02:50:34;;;;;;;11.10;8.30;;;2.70;1.00;;;;;;5073303;28;20661;-78
2022/02/26 02:53:01;;;;;;;12.20;9.23;;;2.60;1.00;;;;;;5072925;28;20210;-76
2022/02/26 02:55:28;;;;;;;16.93;9.37;;;2.60;1.00;;;;;;5073434;28;20257;-75
2022/02/26 02:57:57;;;;;;;13.27;9.53;;;2.60;1.00;;;;;;5072362;28;20207;-77
2022/02/26 03:00:25;;;;;;;13.53;7.77;;;2.50;1.00;;;;;;5072990;28;20259;-78
2022/02/26 03:02:52;;;;;;;13.23;9.73;;;2.30;1.00;;;;;;5072990;28;20210;-71
2022/02/26 03:05:21;;;;;;;8.80;7.90;;;2.10;1.00;;;;;;5073262;28;20241;-74
2022/02/26 03:07:48;;;;;;;10.80;7.70;;;2.30;1.00;;;;;;5073403;28;20206;-78
2022/02/26 03:10:15;;;;;;;11.10;7.00;;;2.30;1.00;;;;;;5072518;28;20236;-73
2022/02/26 03:12:43;;;;;;;13.53;7.77;;;2.30;1.00;;;;;;5072727;28;20202;-72
2022/02/26 03:15:12;;;;;;;10.83;7.23;;;2.30;1.00;;;;;;5072380;28;20206;-76
2022/02/26 03:17:38;;;;;;;13.40;7.37;;;2.30;1.00;;;;;;5072741;28;20267;-75
2022/02/26 03:20:06;;;;;;;16.23;8.23;;;2.40;1.00;;;;;;5072311;28;20198;-76
2022/02/26 03:22:33;;;;;;;11.17;7.67;;;2.30;1.00;;;;;;5072709;28;20198;-84
2022/02/26 03:25:01;;;;;;;9.13;6.80;;;2.30;1.00;;;;;;5072867;28;20237;-80
2022/02/26 03:27:28;;;;;;;14.20;6.97;;;2.30;1.00;;;;;;5072875;28;20202;-83
2022/02/26 03:29:55;;;;;;;9.10;6.63;;;2.00;1.00;;;;;;5072835;28;20203;-84
2022/02/26 03:32:23;;;;;;;10.00;6.03;;;2.00;1.00;;;;;;5073523;28;20252;-69
2022/02/26 03:34:51;;;;;;;10.10;7.30;;;1.70;1.00;;;;;;5072770;28;20731;-79
2022/02/26 03:37:18;;;;;;;8.60;6.20;;;1.50;1.00;;;;;;5073393;28;20292;-82
2022/02/26 03:39:46;;;;;;;8.97;5.90;;;1.70;1.00;;;;;;5073200;28;20613;-85
2022/02/26 03:42:13;;;;;;;12.33;6.23;;;1.60;1.00;;;;;;5072481;28;20209;-83
2022/02/26 03:44:40;;;;;;;7.47;5.67;;;1.70;1.00;;;;;;5072731;28;20237;-83
2022/02/26 03:47:07;;;;;;;11.30;6.13;;;1.80;1.00;;;;;;5072791;28;20689;-86
2022/02/26 03:49:36;;;;;;;7.00;4.90;;;1.90;1.00;;;;;;5072583;28;20206;-80
2022/02/26 03:52:03;;;;;;;6.67;5.77;;;2.00;1.00;;;;;;5071852;28;20259;-79
2022/02/26 03:54:30;;;;;;;10.57;5.97;;;2.00;1.00;;;;;;5072262;28;20206;-76
2022/02/26 03:56:57;;;;;;;9.57;4.93;;;2.10;1.00;;;;;;5071439;28;20255;-77
2022/02/26 03:59:24;;;;;;;7.90;5.37;;;2.00;1.00;;;;;;5072283;28;20676;-77
2022/02/26 04:01:52;;;;;;;9.03;5.63;;;2.10;1.00;;;;;;5072021;28;20206;-77
2022/02/26 04:04:19;;;;;;;9.67;5.73;;;2.10;1.00;;;;;;5072215;28;20327;-74
2022/02/26 04:06:50;;;;;;;9.30;5.70;;;2.20;1.00;;;;;;5071913;28;20263;-82
2022/02/26 04:09:17;;;;;;;8.73;6.17;;;2.10;1.00;;;;;;5072102;28;20202;-82
2022/02/26 04:11:44;;;;;;;9.80;6.80;;;2.10;1.00;;;;;;5072071;28;20252;-80
2022/02/26 04:14:11;;;;;;;10.17;6.27;;;2.10;1.00;;;;;;5071331;28;20735;-80
2022/02/26 04:16:38;;;;;;;9.83;5.63;;;2.10;1.00;;;;;;5071480;28;20207;-77
2022/02/26 04:19:06;;;;;;;9.20;5.20;;;2.10;1.00;;;;;;5071350;28;20651;-74
2022/02/26 04:21:33;;;;;;;8.67;6.53;;;2.10;1.00;;;;;;5071588;28;20262;-73
2022/02/26 04:24:02;;;;;;;12.03;7.63;;;2.00;1.00;;;;;;5070596;28;20226;-75
2022/02/26 04:26:29;;;;;;;11.13;5.70;;;1.90;1.00;;;;;;5071768;28;20206;-74
2022/02/26 04:28:57;;;;;;;13.47;6.03;;;2.00;1.00;;;;;;5071190;28;20575;-73
2022/02/26 04:31:24;;;;;;;9.87;6.53;;;1.90;1.00;;;;;;5071175;28;20210;-71
2022/02/26 04:33:52;;;;;;;9.13;5.13;;;1.90;1.00;;;;;;5071622;28;20210;-73
2022/02/26 04:36:19;;;;;;;10.27;6.70;;;1.80;1.00;;;;;;5071429;28;20747;-77
2022/02/26 04:38:47;;;;;;;11.10;5.37;;;1.80;1.00;;;;;;5071183;28;20673;-71
2022/02/26 04:41:15;;;;;;;11.83;7.73;;;1.90;1.00;;;;;;5070489;28;20210;-77
2022/02/26 04:43:44;;;;;;;9.23;5.70;;;1.80;1.00;;;;;;5070808;28;20264;-76
2022/02/26 04:46:11;;;;;;;8.03;6.43;;;1.90;1.00;;;;;;5088303;28;20270;-74
2022/02/26 04:48:39;;;;;;;8.73;6.57;;;1.80;1.00;;;;;;5090532;28;20213;-74
2022/02/26 04:51:08;;;;;;;11.03;6.13;;;1.80;1.00;;;;;;5090261;28;20201;-78
2022/02/26 04:53:36;;;;;;;6.90;6.20;;;1.80;1.00;;;;;;5090140;28;20197;-73
2022/02/26 04:56:03;;;;;;;8.63;5.43;;;1.80;1.00;;;;;;5089756;28;20206;-75
2022/02/26 04:58:32;;;;;;;10.77;5.93;;;1.80;1.00;;;;;;5090265;28;20205;-76
2022/02/26 05:00:59;;;;;;;13.93;5.90;;;1.70;1.00;;;;;;5089604;28;20577;-78
2022/02/26 05:03:26;;;;;;;10.27;7.13;;;1.70;1.00;;;;;;5090432;28;20209;-72
2022/02/26 05:05:53;;;;;;;8.00;6.33;;;1.70;1.00;;;;;;5089358;28;20225;-75
2022/02/26 05:08:20;;;;;;;8.53;5.43;;;1.70;1.00;;;;;;5090210;28;20202;-78
2022/02/26 05:10:47;;;;;;;11.30;7.37;;;1.60;1.00;;;;;;5090321;28;20209;-75
2022/02/26 05:13:14;;;;;;;13.70;7.97;;;1.60;1.00;;;;;;5089446;28;20733;-71
2022/02/26 05:15:42;;;;;;;10.80;5.20;;;1.60;1.00;;;;;;5090077;28;20209;-79
2022/02/26 05:18:09;;;;;;;7.03;5.20;;;1.60;1.00;;;;;;5089334;28;20629;-79
2022/02/26 05:20:36;;;;;;;8.90;5.03;;;1.60;1.00;;;;;;5084657;28;20240;-76
2022/02/26 05:23:03;;;;;;;14.80;6.60;;;1.50;1.00;;;;;;5086564;28;20267;-76
2022/02/26 05:25:30;;;;;;;8.83;5.60;;;1.50;1.00;;;;;;5089449;28;20642;-80
2022/02/26 05:27:57;;;;;;;12.27;5.57;;;1.50;1.00;;;;;;5089316;28;20265;-73
2022/02/26 05:30:24;;;;;;;7.43;5.90;;;1.50;1.00;;;;;;5089575;28;20642;-76
2022/02/26 05:32:52;;;;;;;11.97;4.97;;;1.40;1.00;;;;;;5089643;28;20254;-71
2022/02/26 05:35:19;;;;;;;14.50;6.60;;;1.30;1.00;;;;;;5089974;28;20198;-77
2022/02/26 05:37:46;;;;;;;10.17;6.03;;;1.40;1.00;;;;;;5089484;28;20201;-77
2022/02/26 05:40:14;;;;;;;11.13;5.80;;;1.40;1.00;;;;;;5089262;28;20201;-77
2022/02/26 05:42:41;;;;;;;7.83;5.70;;;1.30;1.00;;;;;;5089717;28;20206;-78
2022/02/26 05:45:09;;;;;;;7.90;4.93;;;1.30;1.00;;;;;;5089204;28;20630;-80
2022/02/26 05:47:36;;;;;;;8.33;5.60;;;1.40;1.00;;;;;;5089496;28;20267;-76
2022/02/26 05:50:05;;;;;;;7.87;4.93;;;1.40;1.00;;;;;;5077531;28;20209;-74
2022/02/26 05:52:32;;;;;;;7.60;5.70;;;1.30;1.00;;;;;;5078765;28;20262;-74
2022/02/26 05:54:59;;;;;;;11.83;6.03;;;1.20;1.00;;;;;;5088921;28;20205;-76
2022/02/26 05:57:27;;;;;;;12.17;5.53;;;1.30;1.00;;;;;;5089098;28;20229;-78
2022/02/26 05:59:53;;;;;;;11.83;7.03;;;1.30;1.00;;;;;;5085655;28;20209;-79
2022/02/26 06:02:20;;;;;;;7.13;5.37;;;1.40;1.00;;;;;;5080845;28;20208;-77
2022/02/26 06:04:47;;;;;;;10.37;5.47;;;1.40;1.00;;;;;;5079179;28;20638;-81
2022/02/26 06:07:16;;;;;;;7.23;5.33;;;1.40;1.00;;;;;;5072891;28;20259;-76
2022/02/26 06:09:43;;;;;;;10.33;5.43;;;1.40;1.00;;;;;;5070771;28;20213;-82
2022/02/26 06:12:10;;;;;;;9.97;5.80;;;1.30;1.00;;;;;;5070621;28;20205;-80
2022/02/26 06:14:37;;;;;;;8.37;5.50;;;1.20;1.00;;;;;;5070793;28;20232;-77
2022/02/26 06:17:04;;;;;;;8.43;6.40;;;1.30;1.00;;;;;;5070463;28;20202;-78
2022/02/26 06:19:31;;;;;;;8.30;5.73;;;1.40;1.00;;;;;;5070845;28;20267;-79
2022/02/26 06:21:58;;;;;;;10.33;5.80;;;1.50;1.00;;;;;;5070328;28;20206;-81
2022/02/26 06:24:27;;;;;;;13.43;6.07;;;1.10;1.00;;;;;;5070700;28;20233;-80
2022/02/26 06:26:54;;;;;;;14.40;7.00;;;1.10;1.00;;;;;;5070042;28;20678;-78
2022/02/26 06:29:21;;;;;;;8.37;5.80;;;1.10;1.00;;;;;;5089080;28;20661;-73
2022/02/26 06:31:49;;;;;;;9.57;5.60;;;1.10;1.00;;;;;;5074693;28;20228;-73
2022/02/26 06:34:16;;;;;;;13.00;6.73;;;1.40;1.00;;;;;;5076845;28;20250;-74
2022/02/26 06:36:43;;;;;;;9.60;6.27;;;1.50;1.00;;;;;;5074435;28;20268;-73
2022/02/26 06:39:10;;;;;;;8.67;6.03;;;1.50;1.00;;;;;;5084122;28;20201;-73
2022/02/26 06:41:39;;;;;;;10.37;7.93;;;1.10;1.00;;;;;;5089579;28;20263;-72
2022/02/26 06:44:06;;;;;;;10.93;6.23;;;1.10;1.00;;;;;;5089318;28;20206;-71
2022/02/26 06:46:35;;;;;;;16.10;6.73;;;1.30;1.00;;;;;;5074983;28;20755;-71
2022/02/26 06:49:02;;;;;;;8.87;6.17;;;1.20;1.00;;;;;;5069802;28;20255;-71
2022/02/26 06:51:30;;;;;;;10.67;6.20;;;1.20;1.00;;;;;;5072516;28;20209;-71
2022/02/26 06:53:57;;;;;;;10.33;6.13;;;1.20;1.00;;;;;;5076560;28;20202;-70
2022/02/26 06:56:24;;;;;;;15.37;7.00;;;1.30;1.00;;;;;;5081913;28;20591;-72
2022/02/26 06:58:54;;;;;;;7.83;6.43;;;1.50;1.00;;;;;;5081650;28;20205;-73
2022/02/26 07:01:21;;;;;;;12.77;7.07;;;1.50;1.00;;;;;;5086656;28;20677;-73
2022/02/26 07:03:49;;;;;;;10.03;5.93;;;1.70;1.00;;;;;;5085399;28;20270;-72
2022/02/26 07:06:16;;;;;;;14.57;6.43;;;1.70;1.00;;;;;;5089531;28;20286;-70
2022/02/26 07:08:43;;;;;;;11.60;6.83;;;1.70;1.00;;;;;;5090720;28;20205;-72
2022/02/26 07:11:10;;;;;;;11.87;6.43;;;1.70;1.00;;;;;;5093614;28;20661;-67
2022/02/26 07:13:37;;;;;;;12.23;8.27;;;1.90;1.00;;;;;;5076544;28;20214;-69
2022/02/26 07:16:06;;;;;;;12.77;7.87;;;2.00;1.00;;;;;;5075974;28;20213;-68
2022/02/26 07:18:33;;;;;;;7.97;5.93;;;2.10;1.00;;;;;;5093629;28;20712;-69
2022/02/26 07:21:00;;;;;;;10.37;7.63;;;2.30;1.00;;;;;;5092992;28;20205;-69
2022/02/26 07:23:27;;;;;;;12.80;7.57;;;2.40;1.00;;;;;;5093991;28;20205;-68
2022/02/26 07:25:54;;;;;;;16.83;6.70;;;2.70;1.00;;;;;;5093440;28;20241;-69
2022/02/26 07:28:21;;;;;;;10.43;8.73;;;3.20;1.00;;;;;;5078579;28;20666;-68
2022/02/26 07:30:52;;;;;;;18.10;11.37;;;3.10;1.00;;;;;;5072534;28;20434;-68
2022/02/26 07:33:20;;;;;;;18.20;8.47;;;2.70;1.00;;;;;;5053502;28;20804;-68
2022/02/26 07:35:48;;;;;;;11.87;7.37;;;2.50;1.00;;;;;;5063333;28;20210;-70
2022/02/26 07:38:15;;;;;;;10.40;6.63;;;2.80;1.00;;;;;;5073070;28;20206;-74
2022/02/26 07:40:42;;;;;;;10.53;6.97;;;3.00;1.00;;;;;;5073208;28;20550;-68
2022/02/26 07:43:10;;;;;;;9.43;7.43;;;3.70;1.00;;;;;;5072601;28;20735;-69
2022/02/26 07:45:37;;;;;;;12.13;6.83;;;4.40;1.00;;;;;;5073193;28;20600;-69
2022/02/26 07:48:05;;;;;;;10.60;6.47;;;4.60;1.00;;;;;;5072439;28;20222;-74
2022/02/26 07:50:33;;;;;;;10.70;5.80;;;5.10;1.00;;;;;;5073051;28;20210;-68
2022/02/26 07:53:00;;;;;;;9.73;6.17;;;5.70;1.00;;;;;;5072780;28;20248;-69
2022/02/26 07:55:28;;;;;;;9.73;6.00;;;5.60;1.00;;;;;;5071867;28;20271;-69
2022/02/26 07:57:55;;;;;;;13.37;6.53;;;6.80;1.00;;;;;;5072728;28;20206;-69
2022/02/26 08:00:22;;;;;;;14.20;8.13;;;7.00;1.00;;;;;;5071896;28;20214;-71
2022/02/26 08:02:49;;;;;;;6.77;5.17;;;7.50;1.00;;;;;;5072416;28;20264;-76
2022/02/26 08:05:16;;;;;;;10.40;6.33;;;9.00;1.00;;;;;;5071496;28;20230;-76
2022/02/26 08:07:45;;;;;;;10.03;5.90;;;8.10;1.00;;;;;;5072457;28;20256;-77
2022/02/26 08:10:12;;;;;;;8.10;5.83;;;6.90;1.00;;;;;;5071830;28;20392;-72
2022/02/26 08:12:40;;;;;;;4.77;3.63;;;5.80;1.00;;;;;;5072700;28;20252;-75
2022/02/26 08:15:08;;;;;;;6.10;3.57;;;7.10;1.00;;;;;;5071234;28;20212;-73
2022/02/26 08:17:35;;;;;;;12.13;4.43;;;6.20;1.00;;;;;;5072278;28;20202;-79
2022/02/26 08:20:02;;;;;;;5.27;3.20;;;6.20;1.00;;;;;;5072194;28;20202;-70
2022/02/26 08:22:29;;;;;;;9.77;3.63;;;6.00;1.00;;;;;;5072574;28;20256;-77
2022/02/26 08:24:57;;;;;;;4.90;2.77;;;6.60;1.00;;;;;;5072088;28;20229;-69
2022/02/26 08:27:24;;;;;;;6.63;3.87;;;6.80;1.00;;;;;;5072262;28;20206;-69
2022/02/26 08:29:51;;;;;;;9.50;3.53;;;6.50;1.00;;;;;;5072475;28;20203;-68
2022/02/26 08:32:18;;;;;;;7.63;3.43;;;6.30;1.00;;;;;;5071977;28;20735;-70
2022/02/26 08:34:46;;;;;;;6.30;3.40;;;6.80;1.00;;;;;;5072114;28;20207;-69
2022/02/26 08:37:12;;;;;;;5.10;2.87;;;6.60;1.00;;;;;;5071686;28;20206;-72
2022/02/26 08:39:40;;;;;;;5.33;3.00;;;6.60;1.00;;;;;;5072063;28;20248;-70
2022/02/26 08:42:08;;;;;;;7.30;3.57;;;6.20;1.00;;;;;;5071711;28;20202;-70
2022/02/26 08:44:38;;;;;;;4.57;2.90;;;7.80;1.00;;;;;;5071592;28;20225;-68
2022/02/26 08:47:06;;;;;;;15.97;4.47;;;7.70;1.00;;;;;;5071395;28;20244;-72
2022/02/26 08:49:33;;;;;;;6.93;3.20;;;7.30;1.00;;;;;;5071964;28;20207;-75
2022/02/26 08:52:00;;;;;;;4.43;2.77;;;7.20;1.00;;;;;;5071460;28;20206;-70
2022/02/26 08:54:27;;;;;;;4.37;1.97;;;7.30;1.00;;;;;;5071768;28;20209;-70
2022/02/26 08:56:54;;;;;;;7.17;3.20;;;8.00;1.00;;;;;;5071210;28;20271;-69
2022/02/26 08:59:23;;;;;;;6.40;2.50;;;7.40;1.00;;;;;;5072163;28;20206;-69
2022/02/26 09:01:50;;;;;;;4.20;2.37;;;6.90;1.00;;;;;;5071475;28;20677;-75
2022/02/26 09:04:17;;;;;;;6.90;2.57;;;7.10;1.00;;;;;;5071964;28;20288;-70
2022/02/26 09:06:44;;;;;;;4.03;2.20;;;7.00;1.00;;;;;;5071352;28;20240;-68
2022/02/26 09:09:11;;;;;;;11.10;3.63;;;7.10;1.00;;;;;;5071100;28;20202;-76
2022/02/26 09:11:41;;;;;;;6.23;2.67;;;7.20;1.00;;;;;;5071444;28;20198;-69
2022/02/26 09:14:09;;;;;;;2.73;1.43;;;6.60;1.00;;;;;;5070996;28;20205;-72
2022/02/26 09:16:37;;;;;;;4.03;1.57;;;7.20;1.00;;;;;;5070952;28;20210;-73
2022/02/26 09:19:04;;;;;;;7.67;2.70;;;7.40;1.00;;;;;;5070934;28;20202;-70
2022/02/26 09:21:31;;;;;;;10.80;5.87;;;7.60;1.00;;;;;;5071438;28;20205;-68
2022/02/26 09:23:59;;;;;;;5.50;1.77;;;7.60;1.00;;;;;;5070861;28;20266;-71
2022/02/26 09:26:26;;;;;;;7.00;3.73;;;7.60;1.00;;;;;;5071053;28;20599;-69
2022/02/26 09:28:53;;;;;;;6.10;2.50;;;7.80;1.00;;;;;;5070807;28;20252;-71
2022/02/26 09:31:19;;;;;;;12.13;5.33;;;7.80;1.00;;;;;;5070861;28;20206;-69
2022/02/26 09:33:48;;;;;;;22.17;7.80;;;8.10;1.00;;;;;;5071093;28;20198;-69
2022/02/26 09:36:15;;;;;;;4.50;1.77;;;8.40;1.00;;;;;;5070675;28;20255;-68
2022/02/26 09:38:43;;;;;;;6.00;2.17;;;8.50;1.00;;;;;;5070949;28;20209;-70
2022/02/26 09:41:11;;;;;;;11.47;5.50;;;8.30;1.00;;;;;;5070917;28;20264;-73
2022/02/26 09:43:39;;;;;;;2.07;1.70;;;8.20;1.00;;;;;;5070852;28;20267;-72
2022/02/26 09:46:07;;;;;;;4.60;1.93;;;8.50;1.00;;;;;;5070557;28;20604;-71
2022/02/26 09:48:35;;;;;;;4.47;2.03;;;8.70;1.00;;;;;;5070963;28;20210;-72
2022/02/26 09:51:04;;;;;;;4.00;2.30;;;9.60;1.00;;;;;;5070478;28;20203;-69
2022/02/26 09:53:31;;;;;;;3.50;1.53;;;11.10;1.00;;;;;;5071068;28;20737;-76
2022/02/26 09:55:58;;;;;;;2.73;1.50;;;12.00;1.00;;;;;;5070621;28;20198;-79
2022/02/26 09:58:26;;;;;;;3.67;2.00;;;14.00;1.00;;;;;;5070784;28;20275;-75
2022/02/26 10:00:53;;;;;;;4.57;2.03;;;13.90;1.00;;;;;;5070512;28;20620;-77
2022/02/26 10:03:29;;;;;;;5.20;2.00;;;12.70;1.00;;;;;;5071067;28;20266;-73
2022/02/26 10:06:11;;;;;;;3.30;2.10;;;11.50;1.00;;;;;;5070519;28;20241;-72
2022/02/26 10:08:43;;;;;;;5.77;1.93;;;11.00;1.00;;;;;;5070846;28;20206;-78
2022/02/26 10:11:24;;;;;;;7.00;1.98;;;11.90;1.00;;;;;;5070289;28;20632;-78
2022/02/26 10:13:51;;;;;;;4.47;1.85;;;12.50;1.00;;;;;;5070911;28;20259;-72
2022/02/26 10:16:18;;;;;;;2.50;1.60;;;13.20;1.00;;;;;;5070866;28;20202;-76
2022/02/26 10:18:54;;;;;;;5.53;2.22;;;14.70;1.00;;;;;;5070825;28;20202;-74
2022/02/26 10:21:32;;;;;;;2.20;1.83;;;17.90;1.00;;;;;;5070994;28;20263;-76
2022/02/26 10:24:00;;;;;;;6.35;1.90;;;17.70;1.00;;;;;;5070280;28;20202;-78
2022/02/26 10:26:28;;;;;;;2.92;1.77;;;17.00;1.00;;;;;;5070333;28;20225;-71
2022/02/26 10:29:08;;;;;;;4.63;2.00;;;18.80;1.00;;;;;;5069924;28;20685;-69
2022/02/26 10:31:46;;;;;;;3.70;1.88;;;17.70;1.00;;;;;;5070387;28;20205;-74
2022/02/26 10:34:28;;;;;;;4.43;1.65;;;18.10;1.00;;;;;;5070039;28;20202;-78
2022/02/26 10:37:03;;;;;;;2.88;1.60;;;18.20;1.00;;;;;;5070002;28;20569;-80
2022/02/26 10:39:32;;;;;;;2.78;2.22;;;16.80;1.00;;;;;;5070454;28;20205;-77
2022/02/26 10:41:59;;;;;;;9.52;2.75;;;12.10;1.00;;;;;;5070042;28;20206;-77
2022/02/26 10:44:26;;;;;;;3.20;2.15;;;10.80;1.00;;;;;;5072526;28;20251;-77
2022/02/26 10:46:54;;;;;;;2.03;1.73;;;10.60;1.00;;;;;;5073800;28;20230;-75
2022/02/26 10:49:21;;;;;;;3.70;1.63;;;10.50;1.00;;;;;;5074454;28;20248;-77
2022/02/26 10:51:49;;;;;;;2.58;1.48;;;10.60;1.00;;;;;;5074439;28;20267;-81
2022/02/26 10:54:23;;;;;;;3.13;1.60;;;10.70;1.00;;;;;;5073907;28;20263;-76
2022/02/26 10:56:50;;;;;;;3.73;1.17;;;10.90;1.00;;;;;;5074121;28;20206;-80
2022/02/26 10:59:29;;;;;;;3.27;1.10;;;11.00;1.00;;;;;;5074324;28;20202;-73
2022/02/26 11:02:01;;;;;;;2.83;1.53;;;10.90;1.00;;;;;;5073360;28;20226;-77
2022/02/26 11:04:28;;;;;;;4.27;1.50;;;11.10;1.00;;;;;;5073844;28;20613;-72
2022/02/26 11:06:55;;;;;;;2.13;1.63;;;11.10;1.00;;;;;;5073315;28;20798;-80
2022/02/26 11:09:25;;;;;;;4.80;1.50;;;11.10;1.00;;;;;;5073799;28;20362;-71
2022/02/26 11:11:52;;;;;;;2.20;1.23;;;11.00;1.00;;;;;;5073629;28;20207;-72
2022/02/26 11:14:22;;;;;;;4.60;1.97;;;11.30;1.00;;;;;;5073848;28;20736;-77
2022/02/26 11:16:50;;;;;;;2.13;0.97;;;11.40;1.00;;;;;;5073732;28;20201;-76
2022/02/26 11:19:20;;;;;;;4.47;1.20;;;11.50;1.00;;;;;;5073787;28;20235;-78
2022/02/26 11:21:48;;;;;;;2.90;1.10;;;11.70;1.00;;;;;;5073881;28;20214;-76
2022/02/26 11:24:17;;;;;;;3.03;1.27;;;11.90;1.00;;;;;;5073300;28;20206;-75
2022/02/26 11:26:46;;;;;;;2.80;0.70;;;11.90;1.00;;;;;;5073271;28;20660;-77
2022/02/26 11:29:16;;;;;;;2.70;1.30;;;12.00;1.00;;;;;;5072995;28;20559;-72
2022/02/26 11:31:47;;;;;;;3.70;1.00;;;12.00;1.00;;;;;;5073279;28;20245;-77
2022/02/26 11:34:23;;;;;;;0.40;0.40;;;12.40;1.00;;;;;;5073143;28;20202;-69
2022/02/26 11:36:52;;;;;;;0.67;0.50;;;12.40;1.00;;;;;;5073667;28;20230;-72
2022/02/26 11:39:28;;;;;;;1.63;0.63;;;12.30;1.00;;;;;;5073528;28;20202;-76
2022/02/26 11:42:28;;;;;;;2.83;1.37;;;12.20;1.00;;;;;;5072704;28;20206;-71
2022/02/26 11:44:59;;;;;;;2.20;0.93;;;12.50;1.00;;;;;;5072750;28;20198;-72
2022/02/26 11:47:34;;;;;;;3.03;1.00;;;12.40;1.00;;;;;;5073076;28;20237;-73
2022/02/26 11:50:03;;;;;;;1.17;0.70;;;12.70;1.00;;;;;;5072710;28;20673;-75
2022/02/26 11:52:42;;;;;;;1.87;0.60;;;12.70;1.00;;;;;;5072991;28;20202;-73
2022/02/26 11:55:43;;;;;;;3.17;1.00;;;12.60;1.00;;;;;;5071714;28;20203;-71
2022/02/26 11:58:16;;;;;;;1.80;0.80;;;12.90;1.00;;;;;;5072473;28;20727;-73
2022/02/26 12:00:45;;;;;;;2.97;0.70;;;13.00;1.00;;;;;;5072514;28;20222;-69
2022/02/26 12:03:24;;;;;;;1.23;0.90;;;13.00;1.00;;;;;;5072449;28;20271;-76
2022/02/26 12:05:54;;;;;;;2.67;0.60;;;12.80;1.00;;;;;;5073021;28;20201;-69
2022/02/26 12:08:36;;;;;;;0.50;0.30;;;12.70;1.00;;;;;;5072512;28;20260;-75
2022/02/26 12:11:05;;;;;;;3.80;0.70;;;12.80;1.00;;;;;;5072384;28;20206;-74
2022/02/26 12:13:35;;;;;;;2.13;1.30;;;13.00;1.00;;;;;;5072733;28;20221;-78
2022/02/26 12:16:09;;;;;;;1.27;0.50;;;12.90;1.00;;;;;;5072328;28;20202;-73
2022/02/26 12:18:41;;;;;;;0.93;0.57;;;13.20;1.00;;;;;;5072525;28;20270;-76
2022/02/26 12:21:10;;;;;;;1.10;0.82;;;13.30;1.00;;;;;;5072063;28;20206;-72
2022/02/26 12:23:38;;;;;;;1.30;0.80;;;13.40;1.00;;;;;;5072164;28;20629;-77
2022/02/26 12:26:10;;;;;;;0.70;0.60;;;13.40;1.00;;;;;;5072149;28;20204;-77
2022/02/26 12:28:39;;;;;;;1.17;0.52;;;13.50;1.00;;;;;;5072238;28;20674;-77
2022/02/26 12:31:08;;;;;;;6.22;0.57;;;13.70;1.00;;;;;;5071822;28;20205;-73
2022/02/26 12:33:39;;;;;;;1.90;0.87;;;13.30;1.00;;;;;;5072292;28;20210;-77
2022/02/26 12:36:12;;;;;;;1.58;1.48;;;13.50;1.00;;;;;;5071695;28;20731;-78
2022/02/26 12:38:50;;;;;;;3.22;0.60;;;13.40;1.00;;;;;;5072033;28;20202;-78
2022/02/26 12:41:36;;;;;;;0.98;0.70;;;13.40;1.00;;;;;;5072340;28;20209;-71
2022/02/26 12:44:05;;;;;;;1.90;0.65;;;13.60;1.00;;;;;;5071333;28;20213;-76
2022/02/26 12:46:34;;;;;;;1.08;0.75;;;13.60;1.00;;;;;;5071840;28;20233;-78
2022/02/26 12:49:04;;;;;;;1.25;1.15;;;13.60;1.00;;;;;;5071555;28;20236;-75
2022/02/26 12:51:32;;;;;;;8.05;1.33;;;13.80;1.00;;;;;;5072035;28;20198;-70
2022/02/26 12:53:59;;;;;;;1.55;0.93;;;13.60;1.00;;;;;;5071209;28;20206;-77
2022/02/26 12:56:33;;;;;;;5.03;1.17;;;13.70;1.00;;;;;;5071582;28;20209;-76
2022/02/26 12:59:13;;;;;;;0.95;0.60;;;14.00;1.00;;;;;;5071518;28;20540;-73
2022/02/26 13:01:41;;;;;;;1.48;0.88;;;14.00;1.00;;;;;;5071578;28;20209;-80
2022/02/26 13:04:12;;;;;;;1.27;0.65;;;13.90;1.00;;;;;;5071311;28;20206;-78
2022/02/26 13:06:40;;;;;;;0.88;0.70;;;14.00;1.00;;;;;;5070583;28;20230;-79